Time;durP1;ratioP1;P1;durP2;ratioP2;P2;SDS_P1;SDS_P2;PMS_P1;PMS_P2;Temp;Humidity;BMP_temperature;BMP_pressure;BME280_temperature;BME280_humidity;BME280_pressure;Samples;Min_cycle;Max_cycle;Signal;HPM_P1;HPM_P2
2023/06/06 00:01:52;;;;;;;4.50;1.40;;;;;;;13.78;88.78;95865.10;106759;1274;25261;-70
2023/06/06 00:04:20;;;;;;;4.70;1.50;;;;;;;13.79;88.86;95865.63;106741;1274;25374;-70
2023/06/06 00:06:52;;;;;;;3.20;1.70;;;;;;;13.81;88.80;95867.15;106726;1274;22507;-70
2023/06/06 00:09:21;;;;;;;2.90;1.80;;;;;;;13.76;88.07;95865.84;106783;1274;22510;-70
2023/06/06 00:11:49;;;;;;;4.30;1.70;;;;;;;13.65;87.61;95866.50;106726;1274;22514;-70
2023/06/06 00:14:18;;;;;;;3.30;1.80;;;;;;;13.51;88.05;95865.12;106862;1274;22544;-70
2023/06/06 00:16:48;;;;;;;5.50;1.90;;;;;;;13.42;88.48;95864.27;106754;1274;22519;-70
2023/06/06 00:19:20;;;;;;;5.20;3.00;;;;;;;13.39;89.43;95868.77;106811;1274;22519;-70
2023/06/06 00:21:49;;;;;;;8.60;2.30;;;;;;;13.42;89.75;95864.80;106748;1274;22659;-70
2023/06/06 00:24:18;;;;;;;3.50;1.90;;;;;;;13.46;89.78;95866.47;106836;1274;25458;-70
2023/06/06 00:26:46;;;;;;;5.10;2.00;;;;;;;13.47;89.77;95871.03;106807;1274;25211;-70
2023/06/06 00:29:14;;;;;;;7.80;2.40;;;;;;;13.44;89.67;95870.77;106631;1274;25228;-70
2023/06/06 00:31:42;;;;;;;2.00;1.80;;;;;;;13.39;89.73;95869.46;106655;1274;23903;-70
2023/06/06 00:34:11;;;;;;;5.00;1.70;;;;;;;13.33;89.22;95872.79;106795;1274;22518;-70
2023/06/06 00:36:39;;;;;;;3.60;1.80;;;;;;;13.31;89.08;95870.39;106628;1274;22552;-70
2023/06/06 00:39:07;;;;;;;5.30;2.20;;;;;;;13.29;89.16;95873.44;106767;1274;25350;-70
2023/06/06 00:41:36;;;;;;;2.80;1.90;;;;;;;13.27;89.49;95870.65;106782;1274;25309;-70
2023/06/06 00:44:04;;;;;;;4.60;2.20;;;;;;;13.27;89.86;95866.05;106726;1274;25281;-70
2023/06/06 00:46:32;;;;;;;5.10;2.20;;;;;;;13.25;89.98;95868.39;106770;1274;24430;-70
2023/06/06 00:49:00;;;;;;;2.80;2.20;;;;;;;13.22;90.46;95871.45;106735;1274;25305;-70
2023/06/06 00:51:28;;;;;;;4.50;2.00;;;;;;;13.24;90.66;95864.50;106733;1274;22511;-70
2023/06/06 00:53:59;;;;;;;1.90;1.70;;;;;;;13.25;90.44;95864.65;106720;1274;23878;-70
2023/06/06 00:56:28;;;;;;;6.00;2.00;;;;;;;13.26;90.46;95866.59;106800;1274;22511;-71
2023/06/06 00:58:57;;;;;;;4.60;2.00;;;;;;;13.30;90.52;95862.64;106772;1274;25412;-70
2023/06/06 01:01:28;;;;;;;3.70;2.10;;;;;;;13.29;90.43;95867.63;106677;1274;22680;-70
2023/06/06 01:04:00;;;;;;;3.80;2.10;;;;;;;13.32;90.91;95861.52;106775;1274;22853;-70
2023/06/06 01:06:35;;;;;;;3.20;2.10;;;;;;;13.42;91.01;95859.32;106772;1275;22519;-70
2023/06/06 01:09:06;;;;;;;2.80;1.70;;;;;;;13.46;90.19;95858.36;106758;1274;25376;-70
2023/06/06 01:11:56;;;;;;;4.70;1.70;;;;;;;13.42;90.19;95859.51;106756;1274;25265;-70
2023/06/06 01:14:51;;;;;;;5.40;2.20;;;;;;;13.48;90.84;95862.52;106404;1274;25370;-70
2023/06/06 01:17:25;;;;;;;3.30;2.10;;;;;;;13.51;90.74;95864.93;106690;1274;25382;-70
2023/06/06 01:19:56;;;;;;;4.00;2.00;;;;;;;13.58;90.51;95863.49;106796;1274;22514;-70
2023/06/06 01:22:27;;;;;;;4.20;2.00;;;;;;;13.57;89.48;95864.23;106781;1251;22941;-70
2023/06/06 01:24:57;;;;;;;5.10;1.70;;;;;;;13.51;89.06;95863.88;106719;1274;25220;-70
2023/06/06 01:27:28;;;;;;;2.70;1.90;;;;;;;13.43;89.48;95869.37;106648;1274;22517;-70
2023/06/06 01:29:57;;;;;;;7.60;2.00;;;;;;;13.46;90.16;95862.95;106750;1274;25265;-70
2023/06/06 01:32:31;;;;;;;8.70;1.80;;;;;;;13.49;90.30;95865.34;106605;1275;25537;-70
2023/06/06 01:35:22;;;;;;;3.10;2.10;;;;;;;13.59;90.26;95868.27;106609;1274;24454;-70
2023/06/06 01:38:17;;;;;;;9.90;2.10;;;;;;;13.54;89.53;95866.09;106747;1275;22642;-71
2023/06/06 01:40:49;;;;;;;3.50;1.80;;;;;;;13.53;89.85;95865.94;106657;1274;25331;-70
2023/06/06 01:43:20;;;;;;;2.60;1.50;;;;;;;13.60;90.03;95864.52;106775;1274;24366;-70
2023/06/06 01:45:50;;;;;;;3.30;1.70;;;;;;;13.62;89.84;95865.34;106696;1274;25587;-70
2023/06/06 01:48:19;;;;;;;5.60;1.90;;;;;;;13.60;89.80;95864.34;106723;1272;22569;-70
2023/06/06 01:50:49;;;;;;;5.40;2.30;;;;;;;13.55;89.82;95862.54;106810;1274;22528;-70
2023/06/06 01:53:17;;;;;;;7.10;2.00;;;;;;;13.50;90.19;95864.95;106798;1274;24184;-70
2023/06/06 01:55:48;;;;;;;3.70;1.90;;;;;;;13.61;90.55;95867.33;106772;1275;25389;-71
2023/06/06 01:58:18;;;;;;;4.60;1.80;;;;;;;13.67;90.24;95868.92;106747;1274;25318;-70
2023/06/06 02:00:47;;;;;;;5.00;1.90;;;;;;;13.76;89.96;95867.30;106781;1274;22702;-70
2023/06/06 02:03:15;;;;;;;4.80;1.80;;;;;;;13.68;88.80;95866.08;106655;1275;22549;-70
2023/06/06 02:05:45;;;;;;;5.50;2.30;;;;;;;13.57;88.68;95868.48;106787;1275;22612;-70
2023/06/06 02:08:13;;;;;;;7.20;2.10;;;;;;;13.48;88.98;95869.78;106645;1274;22522;-70
2023/06/06 02:10:42;;;;;;;2.30;1.60;;;;;;;13.48;89.17;95873.13;106731;1274;22518;-70
2023/06/06 02:13:10;;;;;;;3.90;2.10;;;;;;;13.49;89.62;95872.75;106738;1274;24153;-70
2023/06/06 02:15:38;;;;;;;3.70;1.90;;;;;;;13.57;89.82;95879.09;106800;1274;22521;-70
2023/06/06 02:18:07;;;;;;;4.20;2.30;;;;;;;13.59;89.47;95878.52;106693;1274;22632;-70
2023/06/06 02:20:35;;;;;;;3.50;2.30;;;;;;;13.62;89.62;95883.91;106695;1275;26613;-71
2023/06/06 02:23:03;;;;;;;4.80;2.30;;;;;;;13.63;88.93;95881.23;106732;1274;22540;-70
2023/06/06 02:25:33;;;;;;;9.60;2.40;;;;;;;13.54;88.64;95881.66;106738;1275;22598;-70
2023/06/06 02:28:03;;;;;;;6.50;2.90;;;;;;;13.46;88.69;95883.80;106712;1274;24193;-69
2023/06/06 02:30:32;;;;;;;5.80;2.00;;;;;;;13.40;88.69;95882.16;106787;1274;22520;-70
2023/06/06 02:33:00;;;;;;;4.20;2.10;;;;;;;13.36;88.96;95881.38;106645;1274;22665;-71
2023/06/06 02:35:29;;;;;;;6.10;2.30;;;;;;;13.36;89.26;95882.27;106759;1274;22602;-70
2023/06/06 02:37:57;;;;;;;3.50;2.30;;;;;;;13.38;89.46;95880.44;106826;1274;25382;-70
2023/06/06 02:40:27;;;;;;;3.80;2.20;;;;;;;13.45;89.72;95876.05;106777;1274;24215;-70
2023/06/06 02:42:59;;;;;;;5.20;2.20;;;;;;;13.40;89.01;95874.73;106706;1275;22514;-70
2023/06/06 02:45:28;;;;;;;6.70;2.60;;;;;;;13.36;89.22;95875.36;106729;1274;22529;-69
2023/06/06 02:47:56;;;;;;;2.70;2.30;;;;;;;13.35;89.59;95875.21;106640;1274;22522;-69
2023/06/06 02:50:27;;;;;;;6.20;2.20;;;;;;;13.39;89.76;95873.17;106765;1274;22537;-70
2023/06/06 02:52:56;;;;;;;6.60;2.50;;;;;;;13.40;89.24;95872.61;106767;1251;25677;-69
2023/06/06 02:55:25;;;;;;;5.10;2.40;;;;;;;13.37;89.05;95881.37;106777;1274;24043;-70
2023/06/06 02:57:53;;;;;;;2.80;2.40;;;;;;;13.31;88.97;95880.63;106736;1274;22537;-69
2023/06/06 03:00:21;;;;;;;7.70;2.30;;;;;;;13.23;88.76;95880.42;106731;1266;24039;-70
2023/06/06 03:02:50;;;;;;;3.50;2.20;;;;;;;13.18;89.33;95880.89;106764;1274;24364;-70
2023/06/06 03:05:18;;;;;;;3.80;2.20;;;;;;;13.12;88.80;95882.98;106865;1274;25340;-69
2023/06/06 03:07:47;;;;;;;2.30;2.10;;;;;;;13.09;89.11;95880.77;106804;1274;26509;-69
2023/06/06 03:10:15;;;;;;;2.90;2.50;;;;;;;13.06;89.63;95882.98;106803;1274;22664;-69
2023/06/06 03:12:46;;;;;;;5.90;2.20;;;;;;;13.05;89.63;95879.64;106747;1274;22511;-69
2023/06/06 03:15:15;;;;;;;5.50;2.40;;;;;;;13.03;90.23;95879.86;106784;1274;22518;-69
2023/06/06 03:17:45;;;;;;;7.00;2.70;;;;;;;13.04;90.87;95881.98;106767;1274;23377;-67
2023/06/06 03:20:13;;;;;;;3.20;2.50;;;;;;;13.05;90.87;95880.34;106113;1274;639467;-68
2023/06/06 03:22:44;;;;;;;5.80;2.70;;;;;;;13.06;91.06;95878.73;106656;1274;22522;-71
2023/06/06 03:25:13;;;;;;;5.40;2.40;;;;;;;13.07;91.76;95879.58;106737;1274;22778;-68
2023/06/06 03:27:43;;;;;;;4.20;2.90;;;;;;;13.08;91.63;95878.67;106801;1263;22635;-70
2023/06/06 03:30:12;;;;;;;3.40;2.90;;;;;;;13.10;91.59;95880.05;106678;1274;22526;-68
2023/06/06 03:32:40;;;;;;;4.60;2.70;;;;;;;13.16;91.85;95879.91;106694;1257;23910;-70
2023/06/06 03:35:09;;;;;;;3.00;2.60;;;;;;;13.26;91.96;95879.15;106723;1274;22636;-70
2023/06/06 03:37:37;;;;;;;6.80;2.60;;;;;;;13.35;91.92;95881.42;106634;1274;25456;-70
2023/06/06 03:40:06;;;;;;;6.70;2.70;;;;;;;13.45;91.75;95878.17;106712;1274;22625;-70
2023/06/06 03:42:35;;;;;;;8.80;3.10;;;;;;;13.55;91.20;95877.20;106727;1274;22518;-70
2023/06/06 03:45:05;;;;;;;2.50;2.30;;;;;;;13.53;90.41;95876.35;106653;1274;24367;-70
2023/06/06 03:47:33;;;;;;;11.00;4.00;;;;;;;13.55;90.59;95877.92;106687;1266;24537;-70
2023/06/06 03:50:01;;;;;;;10.70;3.00;;;;;;;13.60;90.60;95879.90;106755;1274;22635;-70
2023/06/06 03:52:30;;;;;;;5.40;3.10;;;;;;;13.66;90.48;95879.55;106731;1274;22511;-70
2023/06/06 03:54:58;;;;;;;7.00;3.10;;;;;;;13.74;90.83;95874.92;106732;1274;22519;-70
2023/06/06 03:57:26;;;;;;;4.60;3.30;;;;;;;13.84;90.88;95871.32;106506;1274;22637;-70
2023/06/06 03:59:55;;;;;;;3.50;2.60;;;;;;;13.92;90.66;95869.50;106563;1274;26691;-70
2023/06/06 04:02:23;;;;;;;4.90;2.60;;;;;;;14.00;90.69;95869.29;106737;1274;25371;-70
2023/06/06 04:04:51;;;;;;;3.80;2.50;;;;;;;14.10;90.57;95872.54;106766;1274;22510;-70
2023/06/06 04:07:20;;;;;;;5.30;3.00;;;;;;;14.18;90.19;95874.08;106754;1274;25427;-70
2023/06/06 04:09:48;;;;;;;7.00;3.00;;;;;;;14.29;90.00;95872.71;106738;1274;24199;-70
2023/06/06 04:12:16;;;;;;;6.60;3.60;;;;;;;14.36;89.83;95870.02;106656;1274;25530;-70
2023/06/06 04:14:44;;;;;;;7.20;3.40;;;;;;;14.40;89.08;95873.82;106738;1274;25396;-70
2023/06/06 04:17:13;;;;;;;4.20;2.80;;;;;;;14.44;89.29;95876.73;106734;1274;24189;-70
2023/06/06 04:19:42;;;;;;;6.90;3.00;;;;;;;14.48;88.13;95877.82;106750;1260;25210;-70
2023/06/06 04:22:10;;;;;;;3.90;2.70;;;;;;;14.49;88.13;95875.67;106624;1274;25202;-70
2023/06/06 04:24:38;;;;;;;6.60;3.00;;;;;;;14.48;88.24;95877.66;106711;1274;24212;-71
2023/06/06 04:27:08;;;;;;;9.50;2.90;;;;;;;14.57;88.33;95880.09;106768;1274;22514;-70
2023/06/06 04:29:36;;;;;;;5.10;3.30;;;;;;;14.56;87.49;95880.30;106807;1274;22523;-69
2023/06/06 04:32:07;;;;;;;3.60;2.60;;;;;;;14.54;87.45;95877.33;106808;1274;25367;-70
2023/06/06 04:34:39;;;;;;;6.50;2.80;;;;;;;14.60;88.03;95882.27;106781;1274;22571;-71
2023/06/06 04:37:09;;;;;;;4.80;2.60;;;;;;;14.68;87.54;95878.86;106807;1274;25353;-70
2023/06/06 04:39:39;;;;;;;6.80;2.70;;;;;;;14.78;87.84;95882.63;106714;1274;23420;-70
2023/06/06 04:42:08;;;;;;;6.70;3.10;;;;;;;14.95;88.29;95880.36;106768;1274;22540;-70
2023/06/06 04:44:41;;;;;;;6.20;3.00;;;;;;;15.03;87.39;95879.01;106709;1274;22527;-71
2023/06/06 04:47:12;;;;;;;3.20;2.80;;;;;;;15.08;86.95;95873.90;106622;1274;23873;-70
2023/06/06 04:49:40;;;;;;;5.70;2.70;;;;;;;15.13;86.36;95873.04;106808;1274;25400;-70
2023/06/06 04:52:12;;;;;;;3.20;2.90;;;;;;;15.08;86.05;95871.26;106682;1274;25379;-70
2023/06/06 04:54:41;;;;;;;3.90;3.10;;;;;;;15.11;86.73;95873.64;106836;1274;25475;-70
2023/06/06 04:57:16;;;;;;;4.90;3.30;;;;;;;15.14;86.62;95870.17;106806;1274;25306;-72
2023/06/06 04:59:52;;;;;;;7.20;3.90;;;;;;;15.25;87.36;95870.89;106789;1274;23128;-69
2023/06/06 05:02:23;;;;;;;3.60;2.50;;;;;;;15.44;87.58;95861.59;106764;1273;25268;-69
2023/06/06 05:04:53;;;;;;;4.40;2.60;;;;;;;15.60;86.81;95862.11;106644;1274;22646;-71
2023/06/06 05:07:23;;;;;;;4.60;2.80;;;;;;;15.70;86.37;95861.27;106541;1274;22520;-80
2023/06/06 05:09:54;;;;;;;3.40;3.00;;;;;;;15.78;86.13;95863.80;106794;1274;24138;-77
2023/06/06 05:12:23;;;;;;;5.20;3.00;;;;;;;15.84;85.78;95862.74;106770;1274;24364;-71
2023/06/06 05:14:52;;;;;;;3.30;2.80;;;;;;;15.89;85.80;95863.08;106746;1274;24235;-72
2023/06/06 05:17:20;;;;;;;3.70;3.20;;;;;;;15.94;85.69;95863.45;106902;1274;22792;-69
2023/06/06 05:19:49;;;;;;;5.70;3.40;;;;;;;15.96;85.49;95859.98;106803;1274;24198;-73
2023/06/06 05:22:17;;;;;;;4.70;2.90;;;;;;;16.00;85.48;95861.61;106836;1274;22530;-71
2023/06/06 05:24:46;;;;;;;4.10;2.70;;;;;;;16.10;85.90;95860.05;107054;1274;22517;-71
2023/06/06 05:27:14;;;;;;;5.10;3.80;;;;;;;16.16;85.26;95863.02;106847;1274;22578;-75
2023/06/06 05:29:42;;;;;;;3.50;2.80;;;;;;;16.26;85.55;95864.27;107048;1274;22633;-71
2023/06/06 05:32:13;;;;;;;6.30;3.20;;;;;;;16.36;85.54;95862.29;107013;1274;24367;-76
2023/06/06 05:34:41;;;;;;;3.70;2.80;;;;;;;16.52;85.76;95863.45;107085;1274;22514;-76
2023/06/06 05:37:10;;;;;;;3.00;2.60;;;;;;;16.69;85.65;95858.70;106794;1274;22513;-73
2023/06/06 05:39:38;;;;;;;4.50;2.70;;;;;;;16.86;85.47;95855.63;106891;1263;22523;-77
2023/06/06 05:42:06;;;;;;;3.90;2.60;;;;;;;17.02;85.18;95859.23;106676;1274;22598;-73
2023/06/06 05:44:35;;;;;;;7.00;2.90;;;;;;;17.19;83.15;95857.33;107007;1274;24044;-79
2023/06/06 05:47:04;;;;;;;3.40;3.00;;;;;;;17.36;83.09;95848.46;107013;1273;22675;-71
2023/06/06 05:49:32;;;;;;;4.60;2.90;;;;;;;17.46;80.34;95848.02;106833;1264;22513;-78
2023/06/06 05:52:01;;;;;;;5.70;3.20;;;;;;;17.52;80.62;95848.34;106612;1273;22560;-74
2023/06/06 05:54:29;;;;;;;5.70;4.50;;;;;;;17.70;82.00;95849.36;106576;1275;22647;-83
2023/06/06 05:57:25;;;;;;;6.70;3.40;;;;;;;17.89;80.83;95849.61;106625;1273;22514;-78
2023/06/06 05:59:55;;;;;;;4.20;3.20;;;;;;;18.02;80.89;95851.72;106623;1267;24205;-82
2023/06/06 06:02:25;;;;;;;4.20;3.30;;;;;;;18.12;81.09;95856.45;106648;1275;23877;-74
2023/06/06 06:04:53;;;;;;;6.80;3.70;;;;;;;18.24;81.10;95856.30;106641;1275;24258;-75
2023/06/06 06:07:23;;;;;;;6.70;3.70;;;;;;;18.33;81.17;95860.85;106617;1275;25441;-76
2023/06/06 06:09:52;;;;;;;5.40;3.60;;;;;;;18.45;80.68;95862.47;106670;1275;24206;-72
2023/06/06 06:12:20;;;;;;;4.70;3.50;;;;;;;18.52;79.24;95866.97;106834;1275;24208;-73
2023/06/06 06:14:48;;;;;;;5.60;3.80;;;;;;;18.56;78.79;95869.25;106673;1275;22636;-73
2023/06/06 06:17:20;;;;;;;5.20;3.80;;;;;;;18.60;78.54;95869.42;106556;1275;23896;-74
2023/06/06 06:19:48;;;;;;;4.70;3.80;;;;;;;18.64;78.62;95867.67;106611;1272;24255;-73
2023/06/06 06:22:16;;;;;;;5.70;3.80;;;;;;;18.68;78.23;95861.04;106678;1272;23424;-82
2023/06/06 06:24:45;;;;;;;5.00;3.60;;;;;;;18.72;78.78;95857.66;106653;1267;24339;-77
2023/06/06 06:27:13;;;;;;;4.40;3.30;;;;;;;18.82;79.28;95856.34;106611;1267;22513;-73
2023/06/06 06:29:41;;;;;;;4.10;3.50;;;;;;;18.87;78.03;95856.09;107083;1267;23080;-71
2023/06/06 06:32:09;;;;;;;3.90;3.40;;;;;;;18.86;77.74;95856.35;106932;1275;25383;-76
2023/06/06 06:34:38;;;;;;;4.90;3.60;;;;;;;18.90;78.37;95855.45;107075;1275;25340;-78
2023/06/06 06:37:07;;;;;;;3.50;3.20;;;;;;;18.91;77.08;95852.73;106913;1267;22516;-75
2023/06/06 06:39:36;;;;;;;4.90;3.30;;;;;;;18.91;77.55;95851.80;107049;1275;25462;-71
2023/06/06 06:42:07;;;;;;;6.30;3.00;;;;;;;18.96;77.49;95849.45;106654;1272;22631;-72
2023/06/06 06:44:43;;;;;;;5.90;3.40;;;;;;;19.04;77.21;95847.29;106967;1267;22531;-71
2023/06/06 06:47:12;;;;;;;4.20;3.60;;;;;;;19.08;76.71;95851.93;106803;1273;23961;-75
2023/06/06 06:49:41;;;;;;;4.50;3.30;;;;;;;19.14;76.82;95850.19;107031;1272;22547;-71
2023/06/06 06:52:15;;;;;;;4.50;2.90;;;;;;;19.27;76.68;95844.05;106732;1275;24279;-71
2023/06/06 06:54:53;;;;;;;4.40;3.20;;;;;;;19.33;75.40;95838.95;106620;1267;22737;-70
2023/06/06 06:57:21;;;;;;;7.60;3.20;;;;;;;19.42;76.18;95834.05;106580;1263;22535;-68
2023/06/06 06:59:49;;;;;;;3.70;3.00;;;;;;;19.53;75.94;95835.63;106582;1275;22770;-66
2023/06/06 07:02:19;;;;;;;3.70;2.80;;;;;;;19.68;76.83;95838.62;106593;1275;22525;-67
2023/06/06 07:04:48;;;;;;;5.70;3.20;;;;;;;19.81;74.81;95839.92;106858;1275;24685;-68
2023/06/06 07:07:16;;;;;;;3.00;2.30;;;;;;;19.87;74.33;95844.44;107027;1275;24386;-65
2023/06/06 07:09:45;;;;;;;3.40;3.00;;;;;;;19.88;74.25;95844.73;106950;1269;24287;-73
2023/06/06 07:12:13;;;;;;;4.10;3.10;;;;;;;19.95;74.78;95842.80;106894;1275;24265;-70
2023/06/06 07:14:42;;;;;;;7.50;3.30;;;;;;;20.00;74.61;95839.52;107047;1275;22788;-69
2023/06/06 07:17:10;;;;;;;3.60;3.30;;;;;;;20.14;74.85;95838.42;106950;1275;24262;-72
2023/06/06 07:19:39;;;;;;;6.30;3.60;;;;;;;20.25;74.47;95840.11;106951;1275;25357;-66
2023/06/06 07:22:07;;;;;;;3.90;2.90;;;;;;;20.39;73.05;95837.13;106985;1275;25452;-67
2023/06/06 07:24:36;;;;;;;3.20;2.90;;;;;;;20.46;70.74;95836.70;106972;1275;25387;-66
2023/06/06 07:27:06;;;;;;;3.70;3.00;;;;;;;20.45;69.32;95837.30;106747;1276;25448;-66
2023/06/06 07:29:34;;;;;;;6.30;3.20;;;;;;;20.55;71.17;95837.50;106992;1275;22520;-67
2023/06/06 07:32:02;;;;;;;5.10;2.90;;;;;;;20.59;69.46;95836.94;106690;1260;22608;-66
2023/06/06 07:34:30;;;;;;;3.40;2.80;;;;;;;20.54;69.93;95836.47;106569;1275;22723;-67
2023/06/06 07:37:00;;;;;;;4.80;3.50;;;;;;;20.54;71.17;95841.48;106637;1275;22921;-66
2023/06/06 07:39:28;;;;;;;4.70;3.30;;;;;;;20.48;70.12;95842.16;106979;1267;25213;-77
2023/06/06 07:41:56;;;;;;;4.00;3.40;;;;;;;20.42;70.46;95847.30;107001;1267;23902;-70
2023/06/06 07:44:24;;;;;;;6.80;2.80;;;;;;;20.35;69.13;95844.25;106734;1269;25272;-68
2023/06/06 07:46:53;;;;;;;4.20;3.10;;;;;;;20.30;69.65;95849.17;106964;1272;22635;-68
2023/06/06 07:49:21;;;;;;;6.60;3.10;;;;;;;20.27;69.23;95847.92;106990;1275;22792;-64
2023/06/06 07:51:49;;;;;;;4.30;3.50;;;;;;;20.28;70.29;95856.94;106923;1263;22646;-64
2023/06/06 07:54:18;;;;;;;3.90;3.40;;;;;;;20.38;70.84;95852.70;106969;1275;24386;-64
2023/06/06 07:56:46;;;;;;;4.00;3.00;;;;;;;20.50;70.80;95856.51;107020;1275;25696;-64
2023/06/06 07:59:14;;;;;;;6.90;3.50;;;;;;;20.63;71.13;95851.56;107047;1275;24986;-64
2023/06/06 08:01:43;;;;;;;4.30;3.30;;;;;;;20.79;71.74;95853.92;106835;1273;22587;-65
2023/06/06 08:04:11;;;;;;;6.60;3.20;;;;;;;20.90;71.92;95850.08;106613;1270;22521;-65
2023/06/06 08:06:42;;;;;;;3.40;3.10;;;;;;;20.95;71.84;95848.35;106854;1269;24367;-66
2023/06/06 08:09:10;;;;;;;4.10;3.30;;;;;;;20.97;71.01;95850.77;107092;1269;22543;-66
2023/06/06 08:11:39;;;;;;;4.00;3.30;;;;;;;20.95;71.56;95850.89;106952;1269;25037;-65
2023/06/06 08:14:08;;;;;;;4.90;3.30;;;;;;;20.97;71.44;95852.36;107054;1270;22525;-68
2023/06/06 08:16:37;;;;;;;4.40;3.40;;;;;;;20.99;71.22;95848.19;106657;1270;22526;-69
2023/06/06 08:19:06;;;;;;;3.60;3.10;;;;;;;20.95;71.42;95851.23;106619;1267;24205;-68
2023/06/06 08:21:34;;;;;;;3.40;3.10;;;;;;;20.88;71.43;95848.93;106563;1267;22526;-67
2023/06/06 08:24:02;;;;;;;3.70;3.10;;;;;;;20.76;71.37;95850.66;106583;1271;22625;-69
2023/06/06 08:26:32;;;;;;;4.30;3.00;;;;;;;20.60;71.38;95850.64;106683;1252;25382;-73
2023/06/06 08:29:00;;;;;;;3.80;3.30;;;;;;;20.43;71.05;95852.41;106601;1271;25309;-70
2023/06/06 08:31:29;;;;;;;3.80;3.10;;;;;;;20.31;71.08;95852.70;106635;1267;24374;-71
2023/06/06 08:33:58;;;;;;;3.90;3.40;;;;;;;20.21;71.10;95854.50;106622;1275;24200;-67
2023/06/06 08:36:27;;;;;;;4.10;3.50;;;;;;;20.14;72.25;95853.77;106569;1275;25332;-69
2023/06/06 08:38:55;;;;;;;4.10;3.50;;;;;;;20.10;72.70;95849.68;106553;1270;25556;-71
2023/06/06 08:41:26;;;;;;;3.70;3.10;;;;;;;20.06;73.07;95851.12;106509;1271;26633;-71
2023/06/06 08:43:56;;;;;;;4.30;3.10;;;;;;;20.00;72.87;95853.81;106662;1259;25217;-69
2023/06/06 08:46:25;;;;;;;3.40;2.90;;;;;;;19.93;73.62;95850.77;106630;1269;23309;-70
2023/06/06 08:48:56;;;;;;;4.00;2.70;;;;;;;19.88;72.69;95854.42;106649;1275;22523;-71
2023/06/06 08:51:25;;;;;;;5.60;3.40;;;;;;;19.83;72.69;95859.48;106694;1275;24215;-70
2023/06/06 08:53:55;;;;;;;4.30;2.90;;;;;;;19.85;73.32;95861.87;106674;1272;24201;-73
2023/06/06 08:56:26;;;;;;;4.30;2.70;;;;;;;19.89;73.39;95863.44;106649;1275;22636;-74
2023/06/06 08:58:55;;;;;;;2.90;2.70;;;;;;;19.96;73.65;95863.43;106704;1275;22671;-68
2023/06/06 09:01:26;;;;;;;4.00;2.80;;;;;;;20.03;73.52;95864.36;106542;1272;22531;-68
2023/06/06 09:03:57;;;;;;;3.30;2.80;;;;;;;20.11;73.27;95865.34;106662;1275;22508;-72
2023/06/06 09:06:26;;;;;;;6.30;2.90;;;;;;;20.19;73.04;95861.73;106859;1275;22525;-72
2023/06/06 09:08:55;;;;;;;3.20;2.90;;;;;;;20.31;73.55;95862.17;106976;1275;22602;-71
2023/06/06 09:11:24;;;;;;;4.10;3.00;;;;;;;20.40;72.48;95859.02;106780;1275;25521;-72
2023/06/06 09:13:53;;;;;;;3.60;3.20;;;;;;;20.46;71.47;95861.37;106686;1275;25329;-72
2023/06/06 09:16:24;;;;;;;4.30;3.40;;;;;;;20.56;71.89;95863.70;106538;1275;25268;-71
2023/06/06 09:18:56;;;;;;;6.70;3.60;;;;;;;20.68;71.81;95858.81;106539;1275;23712;-72
2023/06/06 09:21:43;;;;;;;6.00;3.40;;;;;;;20.75;71.17;95857.90;106620;1275;24250;-71
2023/06/06 09:24:15;;;;;;;3.50;3.20;;;;;;;20.73;70.52;95858.31;106477;1275;25658;-70
2023/06/06 09:26:44;;;;;;;;;;;;;;;20.74;69.90;95859.38;110532;1275;22250;-68
2023/06/06 09:29:12;;;;;;;4.60;3.30;;;;;;;20.73;69.80;95858.49;109194;1275;22585;-69
2023/06/06 09:31:42;;;;;;;3.80;3.30;;;;;;;20.77;69.80;95857.95;106542;1275;24247;-71
2023/06/06 09:34:10;;;;;;;3.60;3.30;;;;;;;20.83;70.66;95856.54;106595;1275;25601;-71
2023/06/06 09:36:44;;;;;;;3.50;3.20;;;;;;;20.90;70.64;95857.59;106618;1275;22527;-71
2023/06/06 09:39:14;;;;;;;4.70;3.70;;;;;;;20.92;68.48;95856.40;106592;1275;22730;-71
2023/06/06 09:41:47;;;;;;;4.60;3.60;;;;;;;20.91;68.34;95854.48;106720;1275;22679;-72
2023/06/06 09:44:28;;;;;;;4.30;3.80;;;;;;;20.99;68.99;95854.23;106597;1275;25641;-72
2023/06/06 09:47:02;;;;;;;4.60;3.50;;;;;;;21.08;69.45;95852.86;106593;1275;25313;-72
2023/06/06 09:49:37;;;;;;;5.80;3.50;;;;;;;21.15;69.62;95857.48;106609;1275;23686;-72
2023/06/06 09:52:13;;;;;;;3.30;3.00;;;;;;;21.23;69.17;95859.16;106623;1275;22510;-72
2023/06/06 09:54:44;;;;;;;3.40;3.10;;;;;;;21.27;67.78;95858.59;106817;1275;24229;-72
2023/06/06 09:57:14;;;;;;;4.90;3.20;;;;;;;21.28;66.01;95858.87;106981;1275;25343;-72
2023/06/06 09:59:45;;;;;;;3.60;3.20;;;;;;;21.33;66.61;95851.75;106601;1275;24260;-72
2023/06/06 10:02:19;;;;;;;4.70;3.10;;;;;;;21.44;66.85;95852.05;106579;1269;24484;-72
2023/06/06 10:04:48;;;;;;;3.60;2.90;;;;;;;21.52;64.96;95851.11;106622;1275;25386;-72
2023/06/06 10:07:17;;;;;;;3.60;3.30;;;;;;;21.52;64.42;95852.32;106630;1275;24206;-72
2023/06/06 10:09:46;;;;;;;5.00;3.30;;;;;;;21.56;64.42;95848.17;106621;1275;22531;-72
2023/06/06 10:12:15;;;;;;;13.10;3.90;;;;;;;21.64;65.86;95842.53;106641;1275;22531;-72
2023/06/06 10:14:45;;;;;;;5.50;3.50;;;;;;;21.75;66.22;95843.86;106610;1275;22656;-72
2023/06/06 10:17:14;;;;;;;10.20;3.70;;;;;;;21.80;63.23;95843.55;106627;1275;22533;-72
2023/06/06 10:19:45;;;;;;;3.80;3.00;;;;;;;21.87;63.52;95843.14;106650;1275;22516;-72
2023/06/06 10:22:13;;;;;;;5.30;3.40;;;;;;;22.02;63.63;95840.63;106563;1275;22530;-72
2023/06/06 10:24:42;;;;;;;3.80;3.40;;;;;;;22.18;62.81;95845.59;106599;1275;22524;-72
2023/06/06 10:27:19;;;;;;;5.30;4.80;;;;;;;22.27;63.46;95844.34;106534;1275;22537;-71
2023/06/06 10:29:53;;;;;;;6.60;4.10;;;;;;;22.36;64.09;95847.23;106605;1275;22943;-72
2023/06/06 10:32:40;;;;;;;7.10;4.40;;;;;;;22.34;64.14;95849.09;106660;1275;22563;-71
2023/06/06 10:35:12;;;;;;;5.40;4.30;;;;;;;22.20;64.01;95851.04;106700;1275;25211;-72
2023/06/06 10:37:41;;;;;;;5.70;4.90;;;;;;;21.94;64.67;95850.56;106591;1275;22668;-71
2023/06/06 10:40:14;;;;;;;8.10;4.90;;;;;;;21.77;65.46;95852.33;106630;1275;22552;-71
2023/06/06 10:42:42;;;;;;;7.70;5.70;;;;;;;21.59;66.04;95848.70;106591;1275;22577;-72
2023/06/06 10:45:11;;;;;;;10.00;6.60;;;;;;;21.42;66.13;95849.84;106570;1275;22523;-72
2023/06/06 10:47:44;;;;;;;9.60;6.60;;;;;;;21.21;66.75;95854.44;106655;1275;22653;-71
2023/06/06 10:50:17;;;;;;;7.90;6.10;;;;;;;21.02;67.19;95856.75;106680;1275;22542;-71
2023/06/06 10:52:52;;;;;;;7.60;5.80;;;;;;;20.88;67.68;95855.75;106643;1275;22667;-71
2023/06/06 10:55:20;;;;;;;9.50;5.80;;;;;;;20.73;67.86;95853.00;106619;1275;22657;-72
2023/06/06 10:57:53;;;;;;;12.20;5.70;;;;;;;20.57;68.53;95861.36;106589;1275;25614;-72
2023/06/06 11:00:25;;;;;;;7.30;5.10;;;;;;;20.41;69.44;95855.88;106615;1275;22520;-72
2023/06/06 11:02:58;;;;;;;5.60;4.30;;;;;;;20.27;69.99;95861.84;106585;1275;22543;-72
2023/06/06 11:05:28;;;;;;;7.40;5.20;;;;;;;20.16;70.31;95861.53;106640;1275;24481;-72
2023/06/06 11:08:02;;;;;;;9.50;4.50;;;;;;;20.03;70.87;95863.47;106673;1275;25371;-72
2023/06/06 11:10:46;;;;;;;6.20;4.30;;;;;;;19.93;71.46;95860.42;106585;1275;25460;-71
2023/06/06 11:13:26;;;;;;;5.80;4.20;;;;;;;19.85;71.70;95869.19;106585;1275;22523;-72
2023/06/06 11:15:57;;;;;;;5.60;4.50;;;;;;;19.76;72.86;95867.86;106622;1275;22550;-72
2023/06/06 11:18:39;;;;;;;6.20;4.40;;;;;;;19.70;73.69;95874.06;106548;1275;22532;-71
2023/06/06 11:21:07;;;;;;;6.00;5.30;;;;;;;19.59;74.38;95877.98;106570;1275;22511;-72
2023/06/06 11:23:42;;;;;;;7.60;5.40;;;;;;;19.49;75.01;95879.36;106601;1275;22517;-72
2023/06/06 11:26:10;;;;;;;9.00;5.40;;;;;;;19.36;75.62;95881.91;106590;1275;25253;-71
2023/06/06 11:28:40;;;;;;;6.60;4.80;;;;;;;19.23;76.81;95882.73;106564;1275;22542;-71
2023/06/06 11:31:10;;;;;;;5.70;4.80;;;;;;;19.12;77.15;95880.58;106640;1275;25340;-71
2023/06/06 11:33:38;;;;;;;7.60;5.30;;;;;;;19.05;78.09;95882.53;106632;1275;22536;-71
2023/06/06 11:36:07;;;;;;;8.70;5.80;;;;;;;19.00;78.58;95884.04;106568;1275;22530;-71
2023/06/06 11:38:40;;;;;;;7.00;5.30;;;;;;;19.02;79.57;95883.73;106636;1275;22535;-71